sensor_id;sensor_type;location;lat;lon;timestamp;P1;durP1;ratioP1;P2;durP2;ratioP2
16137;SDS011;8174;43.550;5.206;2023-01-31T00:00:05;6.93;;;2.87;;
16137;SDS011;8174;43.550;5.206;2023-01-31T00:08:08;3.33;;;2.30;;
16137;SDS011;8174;43.550;5.206;2023-01-31T00:10:37;2.27;;;1.60;;
16137;SDS011;8174;43.550;5.206;2023-01-31T00:15:54;3.73;;;1.87;;
16137;SDS011;8174;43.550;5.206;2023-01-31T00:18:23;3.07;;;2.20;;
16137;SDS011;8174;43.550;5.206;2023-01-31T00:20:51;3.17;;;2.20;;
16137;SDS011;8174;43.550;5.206;2023-01-31T00:26:24;2.73;;;2.00;;
16137;SDS011;8174;43.550;5.206;2023-01-31T00:28:54;5.53;;;2.10;;
16137;SDS011;8174;43.550;5.206;2023-01-31T00:31:24;2.93;;;2.10;;
16137;SDS011;8174;43.550;5.206;2023-01-31T00:33:53;4.57;;;2.10;;
16137;SDS011;8174;43.550;5.206;2023-01-31T00:36:30;2.40;;;1.80;;
16137;SDS011;8174;43.550;5.206;2023-01-31T00:39:03;4.37;;;2.30;;
16137;SDS011;8174;43.550;5.206;2023-01-31T00:41:39;4.57;;;2.00;;
16137;SDS011;8174;43.550;5.206;2023-01-31T00:44:07;3.30;;;2.10;;
16137;SDS011;8174;43.550;5.206;2023-01-31T00:46:35;7.60;;;2.00;;
16137;SDS011;8174;43.550;5.206;2023-01-31T00:49:10;2.80;;;2.07;;
16137;SDS011;8174;43.550;5.206;2023-01-31T00:51:38;4.57;;;2.10;;
16137;SDS011;8174;43.550;5.206;2023-01-31T00:54:05;3.13;;;2.40;;
16137;SDS011;8174;43.550;5.206;2023-01-31T00:56:33;3.60;;;2.30;;
16137;SDS011;8174;43.550;5.206;2023-01-31T00:59:04;5.27;;;2.07;;
16137;SDS011;8174;43.550;5.206;2023-01-31T11:21:34;3.37;;;2.10;;
16137;SDS011;8174;43.550;5.206;2023-01-31T11:50:59;4.13;;;2.17;;
16137;SDS011;8174;43.550;5.206;2023-01-31T11:53:31;5.30;;;2.30;;
16137;SDS011;8174;43.550;5.206;2023-01-31T11:56:06;3.73;;;2.17;;
16137;SDS011;8174;43.550;5.206;2023-01-31T11:58:36;3.13;;;2.10;;
16137;SDS011;8174;43.550;5.206;2023-01-31T12:01:06;3.53;;;2.07;;
16137;SDS011;8174;43.550;5.206;2023-01-31T12:03:34;4.33;;;2.33;;
16137;SDS011;8174;43.550;5.206;2023-01-31T12:06:05;3.07;;;2.00;;
16137;SDS011;8174;43.550;5.206;2023-01-31T12:08:33;3.57;;;2.00;;
16137;SDS011;8174;43.550;5.206;2023-01-31T12:11:03;5.93;;;2.20;;
16137;SDS011;8174;43.550;5.206;2023-01-31T12:19:07;4.20;;;1.97;;
16137;SDS011;8174;43.550;5.206;2023-01-31T12:21:48;3.47;;;1.93;;
16137;SDS011;8174;43.550;5.206;2023-01-31T12:24:21;3.20;;;1.87;;
16137;SDS011;8174;43.550;5.206;2023-01-31T12:26:53;5.27;;;2.30;;
16137;SDS011;8174;43.550;5.206;2023-01-31T12:29:26;4.00;;;2.00;;
16137;SDS011;8174;43.550;5.206;2023-01-31T12:32:03;4.13;;;1.90;;
16137;SDS011;8174;43.550;5.206;2023-01-31T12:37:33;4.03;;;2.10;;
16137;SDS011;8174;43.550;5.206;2023-01-31T12:40:10;4.70;;;2.80;;
16137;SDS011;8174;43.550;5.206;2023-01-31T12:42:48;4.90;;;2.20;;
16137;SDS011;8174;43.550;5.206;2023-01-31T12:45:23;3.53;;;1.93;;
16137;SDS011;8174;43.550;5.206;2023-01-31T12:47:57;4.50;;;1.93;;
16137;SDS011;8174;43.550;5.206;2023-01-31T12:50:28;3.47;;;2.33;;
16137;SDS011;8174;43.550;5.206;2023-01-31T12:53:11;4.37;;;1.90;;
16137;SDS011;8174;43.550;5.206;2023-01-31T12:55:42;3.50;;;1.70;;
16137;SDS011;8174;43.550;5.206;2023-01-31T12:58:18;6.53;;;2.60;;
16137;SDS011;8174;43.550;5.206;2023-01-31T13:00:51;5.83;;;2.40;;
16137;SDS011;8174;43.550;5.206;2023-01-31T13:03:37;4.07;;;2.20;;
16137;SDS011;8174;43.550;5.206;2023-01-31T13:06:10;3.90;;;2.53;;
16137;SDS011;8174;43.550;5.206;2023-01-31T13:08:41;4.83;;;2.23;;
16137;SDS011;8174;43.550;5.206;2023-01-31T13:11:10;5.73;;;2.90;;
16137;SDS011;8174;43.550;5.206;2023-01-31T13:13:40;3.50;;;2.30;;
16137;SDS011;8174;43.550;5.206;2023-01-31T13:16:10;3.37;;;1.90;;
16137;SDS011;8174;43.550;5.206;2023-01-31T13:18:38;2.90;;;2.00;;
16137;SDS011;8174;43.550;5.206;2023-01-31T13:21:06;6.27;;;2.40;;
16137;SDS011;8174;43.550;5.206;2023-01-31T13:23:35;3.13;;;1.93;;
16137;SDS011;8174;43.550;5.206;2023-01-31T13:26:06;4.53;;;2.30;;
16137;SDS011;8174;43.550;5.206;2023-01-31T13:28:35;3.60;;;2.10;;
16137;SDS011;8174;43.550;5.206;2023-01-31T13:31:04;4.67;;;2.50;;
16137;SDS011;8174;43.550;5.206;2023-01-31T13:33:33;2.87;;;2.10;;
16137;SDS011;8174;43.550;5.206;2023-01-31T13:36:11;3.27;;;2.37;;
16137;SDS011;8174;43.550;5.206;2023-01-31T13:38:42;3.67;;;2.10;;
16137;SDS011;8174;43.550;5.206;2023-01-31T13:41:12;6.60;;;3.03;;
16137;SDS011;8174;43.550;5.206;2023-01-31T13:43:43;6.90;;;3.43;;
16137;SDS011;8174;43.550;5.206;2023-01-31T13:46:11;4.53;;;2.73;;
16137;SDS011;8174;43.550;5.206;2023-01-31T13:48:40;3.00;;;2.17;;
16137;SDS011;8174;43.550;5.206;2023-01-31T13:51:09;4.07;;;2.17;;
16137;SDS011;8174;43.550;5.206;2023-01-31T13:53:43;5.90;;;2.07;;
16137;SDS011;8174;43.550;5.206;2023-01-31T13:56:15;4.47;;;2.60;;
16137;SDS011;8174;43.550;5.206;2023-01-31T13:58:43;4.53;;;2.53;;
16137;SDS011;8174;43.550;5.206;2023-01-31T14:01:14;7.27;;;2.70;;
16137;SDS011;8174;43.550;5.206;2023-01-31T14:06:35;5.37;;;2.17;;
16137;SDS011;8174;43.550;5.206;2023-01-31T14:09:21;5.10;;;2.90;;
16137;SDS011;8174;43.550;5.206;2023-01-31T14:11:50;4.20;;;2.40;;
16137;SDS011;8174;43.550;5.206;2023-01-31T14:14:28;5.40;;;2.70;;
16137;SDS011;8174;43.550;5.206;2023-01-31T14:16:55;5.23;;;2.63;;
16137;SDS011;8174;43.550;5.206;2023-01-31T14:19:29;7.20;;;2.80;;
16137;SDS011;8174;43.550;5.206;2023-01-31T14:22:02;4.67;;;2.73;;
16137;SDS011;8174;43.550;5.206;2023-01-31T14:27:33;7.27;;;2.90;;
16137;SDS011;8174;43.550;5.206;2023-01-31T14:30:09;7.93;;;2.90;;
16137;SDS011;8174;43.550;5.206;2023-01-31T14:32:38;7.60;;;3.60;;
16137;SDS011;8174;43.550;5.206;2023-01-31T14:35:16;6.30;;;3.17;;
16137;SDS011;8174;43.550;5.206;2023-01-31T14:37:49;15.67;;;3.37;;
16137;SDS011;8174;43.550;5.206;2023-01-31T14:40:21;7.93;;;2.43;;
16137;SDS011;8174;43.550;5.206;2023-01-31T14:45:40;4.00;;;2.50;;
16137;SDS011;8174;43.550;5.206;2023-01-31T14:48:13;6.40;;;3.00;;
16137;SDS011;8174;43.550;5.206;2023-01-31T14:50:46;5.43;;;2.60;;
16137;SDS011;8174;43.550;5.206;2023-01-31T14:53:26;5.17;;;2.80;;
16137;SDS011;8174;43.550;5.206;2023-01-31T14:56:05;14.57;;;2.93;;
16137;SDS011;8174;43.550;5.206;2023-01-31T14:58:40;6.07;;;2.80;;
16137;SDS011;8174;43.550;5.206;2023-01-31T15:01:09;5.60;;;2.60;;
16137;SDS011;8174;43.550;5.206;2023-01-31T15:03:37;7.03;;;2.40;;
16137;SDS011;8174;43.550;5.206;2023-01-31T15:06:06;6.97;;;2.50;;
16137;SDS011;8174;43.550;5.206;2023-01-31T15:08:39;9.07;;;2.40;;
16137;SDS011;8174;43.550;5.206;2023-01-31T15:11:10;5.80;;;2.90;;
16137;SDS011;8174;43.550;5.206;2023-01-31T15:13:42;6.73;;;3.40;;
16137;SDS011;8174;43.550;5.206;2023-01-31T15:16:22;7.13;;;3.03;;
16137;SDS011;8174;43.550;5.206;2023-01-31T15:18:52;8.03;;;2.97;;
16137;SDS011;8174;43.550;5.206;2023-01-31T15:21:23;6.47;;;3.00;;
16137;SDS011;8174;43.550;5.206;2023-01-31T15:23:51;6.13;;;3.17;;
16137;SDS011;8174;43.550;5.206;2023-01-31T15:26:19;9.30;;;3.47;;
16137;SDS011;8174;43.550;5.206;2023-01-31T15:28:48;6.20;;;2.50;;
16137;SDS011;8174;43.550;5.206;2023-01-31T15:31:17;6.67;;;2.43;;
16137;SDS011;8174;43.550;5.206;2023-01-31T15:33:48;9.40;;;3.10;;
16137;SDS011;8174;43.550;5.206;2023-01-31T15:36:17;4.13;;;2.90;;
16137;SDS011;8174;43.550;5.206;2023-01-31T15:38:48;8.27;;;2.40;;
16137;SDS011;8174;43.550;5.206;2023-01-31T15:41:18;8.03;;;2.63;;
16137;SDS011;8174;43.550;5.206;2023-01-31T15:43:46;17.87;;;3.33;;
16137;SDS011;8174;43.550;5.206;2023-01-31T15:46:23;5.73;;;3.37;;
16137;SDS011;8174;43.550;5.206;2023-01-31T15:48:52;6.10;;;2.53;;
16137;SDS011;8174;43.550;5.206;2023-01-31T15:51:19;5.97;;;2.37;;
16137;SDS011;8174;43.550;5.206;2023-01-31T15:53:47;5.97;;;2.40;;
16137;SDS011;8174;43.550;5.206;2023-01-31T15:56:16;8.53;;;2.40;;
16137;SDS011;8174;43.550;5.206;2023-01-31T15:58:45;6.23;;;2.77;;
16137;SDS011;8174;43.550;5.206;2023-01-31T16:01:14;5.40;;;2.77;;
16137;SDS011;8174;43.550;5.206;2023-01-31T16:06:30;9.37;;;2.70;;
16137;SDS011;8174;43.550;5.206;2023-01-31T16:11:53;4.33;;;2.60;;
16137;SDS011;8174;43.550;5.206;2023-01-31T16:14:21;5.03;;;2.90;;
16137;SDS011;8174;43.550;5.206;2023-01-31T16:16:50;7.37;;;3.20;;
16137;SDS011;8174;43.550;5.206;2023-01-31T16:19:23;13.97;;;2.90;;
16137;SDS011;8174;43.550;5.206;2023-01-31T16:25:17;8.93;;;3.37;;
16137;SDS011;8174;43.550;5.206;2023-01-31T16:27:44;7.80;;;3.30;;
16137;SDS011;8174;43.550;5.206;2023-01-31T22:51:41;8.13;;;5.40;;
16137;SDS011;8174;43.550;5.206;2023-01-31T22:54:30;12.20;;;6.37;;
16137;SDS011;8174;43.550;5.206;2023-01-31T22:57:07;14.23;;;7.43;;
16137;SDS011;8174;43.550;5.206;2023-01-31T23:02:58;11.77;;;7.80;;
16137;SDS011;8174;43.550;5.206;2023-01-31T23:06:00;13.27;;;7.90;;
16137;SDS011;8174;43.550;5.206;2023-01-31T23:08:30;15.23;;;7.63;;
16137;SDS011;8174;43.550;5.206;2023-01-31T23:11:02;13.47;;;7.63;;
16137;SDS011;8174;43.550;5.206;2023-01-31T23:16:17;10.27;;;6.40;;
